Time;durP1;ratioP1;P1;durP2;ratioP2;P2;SDS_P1;SDS_P2;PMS_P1;PMS_P2;Temp;Humidity;BMP_temperature;BMP_pressure;BME280_temperature;BME280_humidity;BME280_pressure;Samples;Min_cycle;Max_cycle;Signal;HPM_P1;HPM_P2
2021/12/26 00:01:05;;;;;;;;;20.00;17.00;;;;;;;;4964081;28;46003;-80
2021/12/26 00:03:32;;;;;;;;;20.25;18.25;;;;;;;;4964454;28;46055;-80
2021/12/26 00:06:00;;;;;;;;;19.25;16.00;;;;;;;;4962787;28;46057;-80
2021/12/26 00:08:25;;;;;;;;;20.00;19.00;;;;;;;;4966138;28;45445;-80
2021/12/26 00:10:50;;;;;;;;;18.33;14.33;;;;;;;;4954747;28;45603;-80
2021/12/26 00:13:16;;;;;;;;;24.00;18.75;;;;;;;;4975635;28;46268;-80
2021/12/26 00:15:42;;;;;;;;;24.75;18.50;;;;;;;;4958708;28;45709;-80
2021/12/26 00:18:09;;;;;;;;;18.75;17.50;;;;;;;;4989584;28;46008;-80
2021/12/26 00:20:35;;;;;;;;;24.00;19.75;;;;;;;;4966048;28;45739;-80
2021/12/26 00:23:01;;;;;;;;;25.25;19.25;;;;;;;;4966460;28;45763;-80
2021/12/26 00:25:26;;;;;;;;;25.00;19.75;;;;;;;;4964486;28;45496;-80
2021/12/26 00:27:52;;;;;;;;;28.33;21.33;;;;;;;;4974625;28;45539;-82
2021/12/26 00:30:19;;;;;;;;;24.00;22.00;;;;;;;;4969241;28;45546;-80
2021/12/26 00:32:44;;;;;;;;;20.00;18.50;;;;;;;;4970195;28;45576;-80
2021/12/26 00:35:10;;;;;;;;;24.25;19.00;;;;;;;;4961911;28;46841;-79
2021/12/26 00:37:36;;;;;;;;;22.75;20.75;;;;;;;;4958452;28;45680;-81
2021/12/26 00:40:01;;;;;;;;;17.67;17.00;;;;;;;;4968116;28;45557;-80
2021/12/26 00:42:26;;;;;;;;;22.00;18.50;;;;;;;;4965390;28;46426;-81
2021/12/26 00:44:52;;;;;;;;;19.00;17.67;;;;;;;;4968970;28;45928;-81
2021/12/26 00:47:17;;;;;;;;;25.33;19.00;;;;;;;;4961418;28;45474;-81
2021/12/26 00:49:43;;;;;;;;;20.33;15.33;;;;;;;;4963827;28;45679;-81
2021/12/26 00:52:08;;;;;;;;;25.25;17.75;;;;;;;;4973300;28;48056;-81
2021/12/26 00:54:34;;;;;;;;;19.00;18.25;;;;;;;;4964845;28;46111;-82
2021/12/26 00:56:59;;;;;;;;;22.25;19.50;;;;;;;;4964787;28;45525;-81
2021/12/26 00:59:25;;;;;;;;;25.25;19.00;;;;;;;;4960460;28;45493;-81
2021/12/26 01:01:51;;;;;;;;;20.00;18.25;;;;;;;;4963688;28;46021;-81
2021/12/26 01:04:16;;;;;;;;;25.50;18.25;;;;;;;;4957273;28;45840;-81
2021/12/26 01:06:43;;;;;;;;;19.33;17.67;;;;;;;;4964160;28;45596;-80
2021/12/26 01:09:11;;;;;;;;;21.00;19.25;;;;;;;;4969217;28;45505;-81
2021/12/26 01:11:40;;;;;;;;;32.75;20.50;;;;;;;;4967526;28;50179;-81
2021/12/26 01:14:08;;;;;;;;;17.50;15.75;;;;;;;;4970744;28;45511;-81
2021/12/26 01:16:34;;;;;;;;;21.25;21.25;;;;;;;;4965952;28;48130;-82
2021/12/26 01:19:06;;;;;;;;;23.75;19.75;;;;;;;;4964472;28;45624;-82
2021/12/26 01:21:32;;;;;;;;;17.00;15.75;;;;;;;;4970422;28;48206;-79
2021/12/26 01:24:04;;;;;;;;;21.75;20.00;;;;;;;;5006742;28;46282;-82
2021/12/26 01:26:30;;;;;;;;;20.75;18.75;;;;;;;;4986390;28;45664;-80
2021/12/26 01:28:55;;;;;;;;;20.25;19.50;;;;;;;;4978853;28;45631;-82
2021/12/26 01:31:21;;;;;;;;;27.75;22.50;;;;;;;;4966344;28;45684;-80
2021/12/26 01:33:48;;;;;;;;;29.25;22.25;;;;;;;;4961702;28;45448;-81
2021/12/26 01:36:13;;;;;;;;;15.50;11.75;;;;;;;;4969441;28;45643;-81
2021/12/26 01:38:39;;;;;;;;;23.25;21.50;;;;;;;;4985736;28;45543;-81
2021/12/26 01:41:10;;;;;;;;;28.67;22.00;;;;;;;;4967755;28;45725;-81
2021/12/26 01:43:36;;;;;;;;;27.50;22.25;;;;;;;;4980301;28;45914;-80
2021/12/26 01:46:05;;;;;;;;;26.50;19.25;;;;;;;;4967309;28;45795;-81
2021/12/26 01:48:30;;;;;;;;;30.00;21.25;;;;;;;;4968974;28;45504;-81
2021/12/26 01:50:55;;;;;;;;;24.33;22.00;;;;;;;;4964990;28;48337;-80
2021/12/26 01:53:25;;;;;;;;;25.75;23.50;;;;;;;;4970468;28;45465;-81
2021/12/26 01:55:52;;;;;;;;;24.00;21.50;;;;;;;;4967214;28;45631;-81
2021/12/26 01:58:19;;;;;;;;;25.00;22.25;;;;;;;;4999100;28;45687;-81
2021/12/26 02:00:46;;;;;;;;;27.00;23.25;;;;;;;;4964055;28;47145;-81
2021/12/26 02:03:12;;;;;;;;;22.50;18.00;;;;;;;;4966949;28;45667;-81
2021/12/26 02:05:38;;;;;;;;;28.25;22.25;;;;;;;;4963660;28;45603;-81
2021/12/26 02:08:03;;;;;;;;;27.00;20.75;;;;;;;;4971420;28;45339;-81
2021/12/26 02:10:29;;;;;;;;;24.75;22.25;;;;;;;;4969753;28;47581;-81
2021/12/26 02:12:56;;;;;;;;;29.25;21.75;;;;;;;;4960245;28;45574;-82
2021/12/26 02:15:22;;;;;;;;;30.25;23.00;;;;;;;;4965517;28;45569;-81
2021/12/26 02:17:47;;;;;;;;;23.67;22.00;;;;;;;;4976476;28;45682;-81
2021/12/26 02:20:14;;;;;;;;;30.67;24.33;;;;;;;;4987745;28;46136;-81
2021/12/26 02:22:42;;;;;;;;;24.25;21.75;;;;;;;;4985531;28;45951;-81
2021/12/26 02:27:42;;;;;;;;;26.50;22.50;;;;;;;;4989232;28;45557;-81
2021/12/26 02:30:12;;;;;;;;;25.00;19.00;;;;;;;;4964787;28;47228;-81
2021/12/26 02:32:38;;;;;;;;;24.25;21.25;;;;;;;;4996996;28;45402;-81
2021/12/26 02:35:04;;;;;;;;;21.00;18.25;;;;;;;;4972425;28;45530;-81
2021/12/26 02:37:29;;;;;;;;;23.00;20.25;;;;;;;;4979237;28;45540;-81
2021/12/26 02:39:55;;;;;;;;;22.50;20.50;;;;;;;;4971092;28;48257;-81
2021/12/26 02:42:21;;;;;;;;;26.50;16.75;;;;;;;;4964296;28;45458;-81
2021/12/26 02:44:47;;;;;;;;;23.00;20.50;;;;;;;;4960320;28;45475;-81
2021/12/26 02:47:12;;;;;;;;;22.00;17.50;;;;;;;;4968528;28;45585;-81
2021/12/26 02:49:37;;;;;;;;;18.75;18.00;;;;;;;;4963384;28;45538;-81
2021/12/26 02:52:03;;;;;;;;;21.00;18.33;;;;;;;;4967350;28;47717;-81
2021/12/26 02:54:28;;;;;;;;;19.50;16.25;;;;;;;;4964905;28;45670;-81
2021/12/26 02:56:54;;;;;;;;;22.00;18.67;;;;;;;;4965971;28;45555;-81
2021/12/26 02:59:19;;;;;;;;;19.25;18.00;;;;;;;;4966425;28;46678;-81
2021/12/26 03:01:44;;;;;;;;;22.00;17.67;;;;;;;;4968079;28;45454;-81
2021/12/26 03:04:10;;;;;;;;;21.67;17.00;;;;;;;;4972687;28;45600;-81
2021/12/26 03:06:43;;;;;;;;;24.00;19.25;;;;;;;;4971808;28;45632;-81
2021/12/26 03:09:09;;;;;;;;;26.25;22.25;;;;;;;;4968203;28;46452;-81
2021/12/26 03:11:38;;;;;;;;;18.67;17.33;;;;;;;;4959935;28;45796;-81
2021/12/26 03:14:03;;;;;;;;;20.25;19.75;;;;;;;;4970070;28;45478;-81
2021/12/26 03:16:28;;;;;;;;;18.00;15.67;;;;;;;;4966037;28;45627;-81
2021/12/26 03:18:57;;;;;;;;;23.00;15.67;;;;;;;;4977095;28;45588;-81
2021/12/26 03:21:23;;;;;;;;;21.25;18.25;;;;;;;;4965347;28;45579;-81
2021/12/26 03:23:48;;;;;;;;;25.75;21.50;;;;;;;;4967568;28;45652;-79
2021/12/26 03:26:13;;;;;;;;;20.00;19.33;;;;;;;;4991688;28;45673;-80
2021/12/26 03:28:38;;;;;;;;;24.00;18.00;;;;;;;;4963977;28;47172;-80
2021/12/26 03:31:04;;;;;;;;;24.50;17.75;;;;;;;;4964414;28;45904;-81
2021/12/26 03:33:30;;;;;;;;;24.75;20.75;;;;;;;;4964704;28;45520;-81
2021/12/26 03:35:55;;;;;;;;;28.00;20.75;;;;;;;;4972441;28;45700;-82
2021/12/26 03:38:21;;;;;;;;;23.00;17.00;;;;;;;;4964039;28;47174;-82
2021/12/26 03:40:48;;;;;;;;;24.00;22.25;;;;;;;;4954883;28;46165;-82
2021/12/26 03:43:13;;;;;;;;;23.00;20.50;;;;;;;;4964174;28;45563;-82
2021/12/26 03:45:40;;;;;;;;;26.75;20.75;;;;;;;;4966089;28;45433;-79
2021/12/26 03:48:05;;;;;;;;;27.75;21.75;;;;;;;;4968637;28;45570;-79
2021/12/26 03:50:32;;;;;;;;;24.25;21.25;;;;;;;;4968201;28;45665;-81
2021/12/26 03:52:57;;;;;;;;;22.75;22.25;;;;;;;;4969279;28;45579;-81
2021/12/26 03:55:24;;;;;;;;;21.75;18.25;;;;;;;;4967044;28;45719;-79
2021/12/26 03:57:49;;;;;;;;;25.75;21.00;;;;;;;;4984396;28;45612;-80
2021/12/26 04:00:14;;;;;;;;;20.00;18.00;;;;;;;;4963622;28;45717;-80
2021/12/26 04:02:41;;;;;;;;;21.50;19.50;;;;;;;;5000167;28;45379;-80
2021/12/26 04:05:07;;;;;;;;;21.75;20.50;;;;;;;;4963470;28;45653;-81
2021/12/26 04:07:32;;;;;;;;;22.75;19.50;;;;;;;;4968045;28;45505;-82
2021/12/26 04:09:57;;;;;;;;;25.67;21.33;;;;;;;;4960801;28;45623;-82
2021/12/26 04:12:22;;;;;;;;;20.67;17.67;;;;;;;;4967725;28;45494;-80
2021/12/26 04:14:47;;;;;;;;;24.67;19.67;;;;;;;;4965179;28;45507;-82
2021/12/26 04:17:13;;;;;;;;;21.33;17.00;;;;;;;;4969493;28;46339;-80
2021/12/26 04:19:38;;;;;;;;;16.67;15.67;;;;;;;;4963528;28;45700;-79
2021/12/26 04:22:03;;;;;;;;;23.00;20.33;;;;;;;;4963414;28;45752;-79
2021/12/26 04:24:30;;;;;;;;;22.00;16.50;;;;;;;;4964153;28;45410;-80
2021/12/26 04:26:55;;;;;;;;;20.00;18.75;;;;;;;;4967277;28;46175;-81
2021/12/26 04:29:21;;;;;;;;;23.25;17.50;;;;;;;;4966999;28;46308;-80
2021/12/26 04:31:46;;;;;;;;;26.50;20.50;;;;;;;;4965533;28;45489;-80
2021/12/26 04:34:11;;;;;;;;;19.25;18.75;;;;;;;;4959476;28;45500;-81
2021/12/26 04:36:37;;;;;;;;;19.00;16.33;;;;;;;;4964689;28;46411;-81
2021/12/26 04:39:03;;;;;;;;;20.00;17.67;;;;;;;;4964219;28;46754;-81
2021/12/26 04:41:28;;;;;;;;;17.00;15.00;;;;;;;;4964472;28;45663;-81
2021/12/26 04:43:53;;;;;;;;;20.67;15.67;;;;;;;;4968516;28;45760;-81
2021/12/26 04:46:19;;;;;;;;;17.33;15.67;;;;;;;;4965280;28;45597;-81
2021/12/26 04:48:45;;;;;;;;;16.33;13.33;;;;;;;;4964996;28;45480;-81
2021/12/26 04:51:10;;;;;;;;;17.25;14.00;;;;;;;;4965931;28;45604;-81
2021/12/26 04:53:37;;;;;;;;;18.50;15.50;;;;;;;;4967399;28;45609;-81
2021/12/26 04:56:03;;;;;;;;;19.25;13.25;;;;;;;;4966013;28;46322;-82
2021/12/26 04:58:28;;;;;;;;;22.50;14.50;;;;;;;;4963376;28;45520;-81
2021/12/26 05:00:53;;;;;;;;;18.33;13.33;;;;;;;;4969029;28;45573;-81
2021/12/26 05:03:19;;;;;;;;;16.67;12.00;;;;;;;;4970124;28;45478;-81
2021/12/26 05:05:45;;;;;;;;;14.50;12.75;;;;;;;;4972409;28;45525;-81
2021/12/26 05:08:11;;;;;;;;;18.50;14.50;;;;;;;;4970767;28;46078;-81
2021/12/26 05:10:36;;;;;;;;;14.25;13.00;;;;;;;;4967046;28;45523;-81
2021/12/26 05:13:02;;;;;;;;;13.50;13.25;;;;;;;;4962318;28;45462;-81
2021/12/26 05:15:27;;;;;;;;;18.75;14.50;;;;;;;;4975405;28;46246;-81
2021/12/26 05:17:53;;;;;;;;;17.67;15.00;;;;;;;;4975056;28;45373;-82
2021/12/26 05:20:18;;;;;;;;;15.25;12.50;;;;;;;;4965551;28;45497;-81
2021/12/26 05:22:44;;;;;;;;;16.25;14.75;;;;;;;;4966640;28;45515;-81
2021/12/26 05:25:09;;;;;;;;;15.00;13.75;;;;;;;;4967029;28;46574;-81
2021/12/26 05:27:35;;;;;;;;;16.25;11.50;;;;;;;;4965466;28;45544;-81
2021/12/26 05:30:00;;;;;;;;;20.25;16.25;;;;;;;;4961545;28;45877;-81
2021/12/26 05:32:25;;;;;;;;;18.00;14.00;;;;;;;;4968997;28;45464;-81
2021/12/26 05:34:50;;;;;;;;;13.00;12.67;;;;;;;;4971068;28;46429;-81
2021/12/26 05:37:15;;;;;;;;;17.67;13.67;;;;;;;;4971172;28;45503;-81
2021/12/26 05:39:42;;;;;;;;;17.67;15.67;;;;;;;;4971262;28;46143;-81
2021/12/26 05:42:09;;;;;;;;;13.25;9.75;;;;;;;;4968360;28;45521;-81
2021/12/26 05:44:35;;;;;;;;;11.50;10.50;;;;;;;;4968584;28;48118;-81
2021/12/26 05:47:00;;;;;;;;;18.00;12.00;;;;;;;;4973837;28;45667;-80
2021/12/26 05:49:27;;;;;;;;;18.00;13.00;;;;;;;;4965332;28;46712;-81
2021/12/26 05:51:52;;;;;;;;;20.75;16.25;;;;;;;;4970009;28;45345;-81
2021/12/26 05:54:18;;;;;;;;;22.33;15.00;;;;;;;;4971277;28;46154;-81
2021/12/26 05:56:43;;;;;;;;;22.67;17.67;;;;;;;;4966008;28;45546;-81
2021/12/26 05:59:08;;;;;;;;;16.33;13.00;;;;;;;;4958600;28;45707;-81
2021/12/26 06:01:33;;;;;;;;;16.33;16.33;;;;;;;;4967754;28;45726;-81
2021/12/26 06:03:58;;;;;;;;;14.00;12.67;;;;;;;;4967972;28;45645;-81
2021/12/26 06:06:24;;;;;;;;;15.00;12.67;;;;;;;;4964688;28;45494;-81
2021/12/26 06:08:49;;;;;;;;;20.75;15.25;;;;;;;;4964829;28;45625;-81
2021/12/26 06:11:14;;;;;;;;;14.67;12.67;;;;;;;;4965002;28;45549;-81
2021/12/26 06:13:39;;;;;;;;;15.33;13.00;;;;;;;;4957164;28;46780;-81
2021/12/26 06:16:05;;;;;;;;;15.33;13.00;;;;;;;;4959488;28;45919;-81
2021/12/26 06:18:30;;;;;;;;;19.00;15.00;;;;;;;;4966304;28;45611;-81
2021/12/26 06:20:55;;;;;;;;;19.33;14.00;;;;;;;;4954543;28;45576;-81
2021/12/26 06:23:20;;;;;;;;;14.67;12.33;;;;;;;;4961909;28;47277;-79
2021/12/26 06:25:45;;;;;;;;;16.33;15.33;;;;;;;;4964394;28;45490;-79
2021/12/26 06:28:11;;;;;;;;;16.67;13.33;;;;;;;;4964742;28;45552;-80
2021/12/26 06:30:36;;;;;;;;;13.33;12.00;;;;;;;;4965177;28;45544;-80
2021/12/26 06:33:01;;;;;;;;;13.33;13.00;;;;;;;;4966674;28;45640;-81
2021/12/26 06:35:27;;;;;;;;;13.00;11.75;;;;;;;;4964677;28;45397;-81
2021/12/26 06:37:52;;;;;;;;;14.25;12.75;;;;;;;;4959901;28;45681;-82
2021/12/26 06:40:17;;;;;;;;;11.67;11.67;;;;;;;;4965033;28;45429;-80
2021/12/26 06:42:45;;;;;;;;;11.00;10.33;;;;;;;;4961144;28;45458;-80
2021/12/26 06:45:12;;;;;;;;;11.00;10.00;;;;;;;;4966561;28;46291;-80
2021/12/26 06:47:37;;;;;;;;;14.00;11.00;;;;;;;;4961920;28;45789;-80
2021/12/26 06:50:04;;;;;;;;;12.67;12.00;;;;;;;;4959908;28;45529;-80
2021/12/26 06:52:30;;;;;;;;;11.50;9.75;;;;;;;;4963456;28;47653;-81
2021/12/26 06:54:55;;;;;;;;;12.00;11.25;;;;;;;;4961554;28;46675;-80
2021/12/26 06:57:20;;;;;;;;;11.75;10.25;;;;;;;;4958099;28;45502;-81
2021/12/26 06:59:45;;;;;;;;;12.00;9.25;;;;;;;;4958165;28;45476;-80
2021/12/26 07:02:11;;;;;;;;;13.67;11.33;;;;;;;;4952549;28;46347;-81
2021/12/26 07:04:36;;;;;;;;;14.75;11.00;;;;;;;;4952113;28;45767;-82
2021/12/26 07:07:01;;;;;;;;;11.67;9.00;;;;;;;;4959697;28;45547;-81
2021/12/26 07:09:26;;;;;;;;;12.00;12.00;;;;;;;;4990865;28;45508;-81
2021/12/26 07:11:52;;;;;;;;;15.00;12.00;;;;;;;;5031652;27;46103;-81
2021/12/26 07:14:17;;;;;;;;;15.33;13.67;;;;;;;;4967081;28;45517;-81
2021/12/26 07:16:42;;;;;;;;;11.67;11.67;;;;;;;;4975519;28;45786;-82
2021/12/26 07:19:07;;;;;;;;;18.00;12.33;;;;;;;;4967856;28;45470;-81
2021/12/26 07:21:33;;;;;;;;;15.67;12.67;;;;;;;;4965988;28;48157;-81
2021/12/26 07:23:58;;;;;;;;;12.67;12.67;;;;;;;;4968489;28;45410;-82
2021/12/26 07:26:24;;;;;;;;;17.67;12.00;;;;;;;;4964624;28;45449;-81
2021/12/26 07:28:49;;;;;;;;;24.50;13.00;;;;;;;;4968097;28;46234;-81
2021/12/26 07:31:14;;;;;;;;;15.25;10.25;;;;;;;;4955129;28;47451;-82
2021/12/26 07:33:40;;;;;;;;;14.33;12.67;;;;;;;;4962383;28;45508;-81
2021/12/26 07:36:06;;;;;;;;;15.25;12.75;;;;;;;;4962631;28;45466;-80
2021/12/26 07:38:31;;;;;;;;;15.00;11.25;;;;;;;;5016235;28;45370;-81
2021/12/26 07:40:56;;;;;;;;;13.00;11.25;;;;;;;;4968493;28;46677;-81
2021/12/26 07:43:21;;;;;;;;;13.00;10.00;;;;;;;;4969665;28;45694;-81
2021/12/26 07:45:47;;;;;;;;;17.67;13.33;;;;;;;;4960959;28;45508;-81
2021/12/26 07:48:12;;;;;;;;;13.00;13.00;;;;;;;;4966533;28;45566;-81
2021/12/26 07:50:37;;;;;;;;;24.67;14.67;;;;;;;;4953242;28;47158;-81
2021/12/26 07:53:10;;;;;;;;;18.67;12.33;;;;;;;;4967677;28;45705;-81
2021/12/26 07:55:36;;;;;;;;;16.00;13.50;;;;;;;;4965942;28;45547;-81
2021/12/26 07:58:01;;;;;;;;;25.00;18.25;;;;;;;;4961410;28;45731;-81
2021/12/26 08:00:26;;;;;;;;;19.00;13.75;;;;;;;;4962953;28;45525;-81
2021/12/26 08:02:52;;;;;;;;;11.67;11.67;;;;;;;;4951819;28;45616;-81
2021/12/26 08:05:18;;;;;;;;;18.00;14.75;;;;;;;;4954019;28;45442;-82
2021/12/26 08:07:43;;;;;;;;;13.00;11.00;;;;;;;;4964172;28;45463;-81
2021/12/26 08:10:09;;;;;;;;;16.75;14.25;;;;;;;;4955605;28;45822;-81
2021/12/26 08:12:34;;;;;;;;;21.00;13.25;;;;;;;;4959657;28;47019;-81
2021/12/26 08:15:01;;;;;;;;;19.25;13.75;;;;;;;;4969378;28;45611;-81
2021/12/26 08:17:27;;;;;;;;;28.75;22.25;;;;;;;;4962430;28;45575;-82
2021/12/26 08:19:52;;;;;;;;;18.00;13.50;;;;;;;;4970091;28;46528;-81
2021/12/26 08:22:17;;;;;;;;;22.25;13.25;;;;;;;;4969152;28;45710;-81
2021/12/26 08:24:42;;;;;;;;;13.50;13.25;;;;;;;;4960410;28;45436;-81
2021/12/26 08:27:08;;;;;;;;;19.00;14.00;;;;;;;;4959800;28;45371;-81
2021/12/26 08:29:33;;;;;;;;;14.67;13.00;;;;;;;;4983113;28;46727;-80
2021/12/26 08:32:00;;;;;;;;;19.00;15.00;;;;;;;;4967499;28;45763;-80
2021/12/26 08:34:26;;;;;;;;;12.75;12.00;;;;;;;;4966904;28;45478;-81
2021/12/26 08:36:58;;;;;;;;;11.75;11.75;;;;;;;;4964853;28;45556;-80
2021/12/26 08:39:24;;;;;;;;;15.00;11.00;;;;;;;;4965301;28;48104;-82
2021/12/26 08:41:50;;;;;;;;;12.75;12.75;;;;;;;;4968777;28;45678;-81
2021/12/26 08:44:16;;;;;;;;;11.75;10.50;;;;;;;;4955668;28;45559;-80
2021/12/26 08:46:42;;;;;;;;;22.00;13.75;;;;;;;;4981122;28;45578;-80
2021/12/26 08:49:07;;;;;;;;;14.25;12.00;;;;;;;;4967702;28;45780;-80
2021/12/26 08:51:32;;;;;;;;;18.00;15.00;;;;;;;;4968917;28;45508;-80
2021/12/26 08:54:00;;;;;;;;;17.00;13.67;;;;;;;;4969180;28;45606;-79
2021/12/26 08:56:25;;;;;;;;;18.75;14.50;;;;;;;;4970412;28;46899;-79
2021/12/26 08:58:50;;;;;;;;;15.33;14.33;;;;;;;;4980408;28;46059;-81
2021/12/26 09:01:15;;;;;;;;;14.00;12.00;;;;;;;;4978329;28;45564;-81
2021/12/26 09:03:41;;;;;;;;;15.00;15.00;;;;;;;;5008997;28;45555;-69
2021/12/26 09:06:07;;;;;;;;;15.25;12.75;;;;;;;;4974807;28;45505;-69
2021/12/26 09:08:32;;;;;;;;;18.50;15.25;;;;;;;;4970055;28;45518;-69
2021/12/26 09:10:58;;;;;;;;;14.67;11.00;;;;;;;;4960252;28;45508;-81
2021/12/26 09:13:23;;;;;;;;;14.67;11.67;;;;;;;;4969772;27;45474;-82
2021/12/26 09:15:48;;;;;;;;;12.50;10.25;;;;;;;;4973094;28;45609;-82
2021/12/26 09:18:13;;;;;;;;;13.00;11.00;;;;;;;;4976441;28;46501;-81
2021/12/26 09:20:39;;;;;;;;;14.33;10.33;;;;;;;;4970933;28;46247;-88
2021/12/26 09:23:04;;;;;;;;;11.33;11.00;;;;;;;;4991543;28;45510;-81
2021/12/26 09:25:29;;;;;;;;;13.50;10.00;;;;;;;;4968376;28;45644;-81
2021/12/26 09:27:55;;;;;;;;;11.00;11.00;;;;;;;;4967368;28;45528;-81
2021/12/26 09:32:55;;;;;;;;;14.50;11.75;;;;;;;;4586634;22;46702;-79
2021/12/26 09:35:21;;;;;;;;;19.75;11.25;;;;;;;;5028869;28;45712;-81
2021/12/26 09:37:46;;;;;;;;;10.75;10.75;;;;;;;;5025489;28;47813;-80
2021/12/26 09:40:14;;;;;;;;;13.75;11.00;;;;;;;;5020692;28;45402;-79
2021/12/26 09:42:39;;;;;;;;;10.50;7.25;;;;;;;;5026832;28;45866;-82
2021/12/26 09:45:05;;;;;;;;;13.00;10.25;;;;;;;;5022202;28;45785;-90
2021/12/26 09:47:30;;;;;;;;;13.00;12.00;;;;;;;;5025704;28;47232;-79
2021/12/26 09:49:56;;;;;;;;;16.50;10.00;;;;;;;;5025451;28;48476;-80
2021/12/26 09:52:21;;;;;;;;;13.50;10.50;;;;;;;;5023851;28;45663;-80
2021/12/26 09:54:47;;;;;;;;;12.75;11.25;;;;;;;;5029260;28;46225;-79
2021/12/26 09:57:13;;;;;;;;;11.00;10.00;;;;;;;;5028715;28;45582;-80
2021/12/26 09:59:40;;;;;;;;;10.50;9.00;;;;;;;;5032384;28;46661;-79
2021/12/26 10:02:07;;;;;;;;;11.50;9.00;;;;;;;;5028951;28;45634;-80
2021/12/26 10:04:33;;;;;;;;;16.00;12.50;;;;;;;;5029069;28;45538;-81
2021/12/26 10:07:04;;;;;;;;;9.25;8.00;;;;;;;;5024972;28;46689;-80
2021/12/26 10:09:30;;;;;;;;;10.00;9.50;;;;;;;;5029197;28;46018;-82
2021/12/26 10:11:57;;;;;;;;;12.00;9.75;;;;;;;;5030008;28;45709;-80
2021/12/26 10:14:24;;;;;;;;;10.00;7.00;;;;;;;;5029732;28;45818;-81
2021/12/26 10:17:08;;;;;;;;;13.50;9.50;;;;;;;;5029131;28;46563;-80
2021/12/26 10:19:44;;;;;;;;;9.75;9.75;;;;;;;;5028314;28;45727;-79
2021/12/26 10:22:11;;;;;;;;;11.00;9.50;;;;;;;;5028317;28;45544;-79
2021/12/26 10:24:40;;;;;;;;;12.00;12.00;;;;;;;;5028454;28;45631;-80
2021/12/26 10:27:11;;;;;;;;;12.25;8.25;;;;;;;;5029784;28;47171;-80
2021/12/26 10:29:39;;;;;;;;;11.25;8.50;;;;;;;;5028690;28;45719;-80
2021/12/26 10:32:12;;;;;;;;;11.75;10.50;;;;;;;;5023224;28;46191;-79
2021/12/26 10:34:45;;;;;;;;;11.75;10.75;;;;;;;;5027620;28;46902;-79
2021/12/26 10:37:12;;;;;;;;;13.75;9.00;;;;;;;;5029524;28;46727;-80
2021/12/26 10:39:39;;;;;;;;;10.00;8.75;;;;;;;;5017310;28;46226;-79
2021/12/26 10:42:06;;;;;;;;;11.25;10.00;;;;;;;;5028730;28;46007;-79
2021/12/26 10:44:38;;;;;;;;;15.00;12.00;;;;;;;;5031091;28;45625;-79
2021/12/26 10:47:07;;;;;;;;;9.50;8.00;;;;;;;;5028742;28;46240;-79
2021/12/26 10:49:37;;;;;;;;;9.75;9.00;;;;;;;;5029102;28;45482;-79
2021/12/26 10:52:08;;;;;;;;;10.00;9.75;;;;;;;;5030000;28;45545;-80
2021/12/26 10:54:35;;;;;;;;;9.00;7.75;;;;;;;;5032980;28;45642;-79
2021/12/26 10:57:02;;;;;;;;;7.00;6.00;;;;;;;;5030636;28;46402;-79
2021/12/26 10:59:28;;;;;;;;;5.00;3.50;;;;;;;;5032051;28;45915;-79
2021/12/26 11:01:56;;;;;;;;;6.00;4.00;;;;;;;;5036324;28;48818;-80
2021/12/26 11:04:21;;;;;;;;;6.75;5.75;;;;;;;;5038750;28;46547;-79
2021/12/26 11:07:08;;;;;;;;;3.00;3.00;;;;;;;;5029824;28;46929;-80
2021/12/26 11:09:34;;;;;;;;;4.00;4.00;;;;;;;;5020047;28;45992;-81
2021/12/26 11:12:01;;;;;;;;;6.50;5.50;;;;;;;;5031678;28;45439;-79
2021/12/26 11:14:26;;;;;;;;;5.25;4.50;;;;;;;;5032959;28;45504;-79
2021/12/26 11:16:52;;;;;;;;;5.25;4.00;;;;;;;;5032541;28;46595;-79
2021/12/26 11:19:37;;;;;;;;;5.75;4.75;;;;;;;;5029866;28;45816;-80
2021/12/26 11:22:03;;;;;;;;;4.50;4.00;;;;;;;;5029268;28;45602;-81
2021/12/26 11:24:28;;;;;;;;;3.25;3.25;;;;;;;;5029591;28;45797;-80
2021/12/26 11:26:53;;;;;;;;;4.00;3.00;;;;;;;;5029055;28;46760;-80
2021/12/26 11:29:19;;;;;;;;;4.67;3.67;;;;;;;;5030132;28;45570;-79
2021/12/26 11:31:44;;;;;;;;;4.25;3.00;;;;;;;;5031051;28;45394;-80
2021/12/26 11:34:10;;;;;;;;;4.00;2.00;;;;;;;;5028941;28;45933;-80
2021/12/26 11:36:35;;;;;;;;;4.50;2.50;;;;;;;;5030823;28;46541;-80
2021/12/26 11:39:06;;;;;;;;;4.75;3.00;;;;;;;;5029557;28;45788;-80
2021/12/26 11:41:31;;;;;;;;;3.00;3.00;;;;;;;;5025710;28;45699;-81
2021/12/26 11:43:59;;;;;;;;;7.33;3.00;;;;;;;;5025821;28;47299;-82
2021/12/26 11:46:38;;;;;;;;;4.00;4.00;;;;;;;;5026593;28;46194;-85
2021/12/26 11:49:08;;;;;;;;;4.25;3.50;;;;;;;;5022705;28;45724;-86
2021/12/26 11:51:36;;;;;;;;;2.00;2.00;;;;;;;;5025757;28;45599;-83
2021/12/26 11:54:02;;;;;;;;;3.25;3.25;;;;;;;;5054616;27;45807;-83
2021/12/26 11:56:46;;;;;;;;;3.25;2.75;;;;;;;;5027816;28;47039;-81
2021/12/26 11:59:30;;;;;;;;;3.00;3.00;;;;;;;;5026648;28;46685;-82
2021/12/26 12:01:55;;;;;;;;;2.00;2.00;;;;;;;;5026356;28;45868;-82
2021/12/26 12:04:22;;;;;;;;;2.50;2.50;;;;;;;;5026500;28;45611;-82
2021/12/26 12:06:51;;;;;;;;;2.00;1.00;;;;;;;;5028035;28;45811;-82
2021/12/26 12:09:26;;;;;;;;;2.00;2.00;;;;;;;;5026366;28;45961;-83
2021/12/26 12:12:05;;;;;;;;;2.00;2.00;;;;;;;;5026423;28;45996;-82
2021/12/26 12:14:49;;;;;;;;;5.00;2.00;;;;;;;;5025410;28;45726;-82
2021/12/26 12:17:16;;;;;;;;;3.00;3.00;;;;;;;;5024789;28;46558;-82
2021/12/26 12:20:08;;;;;;;;;2.75;2.00;;;;;;;;5025984;28;45736;-80
2021/12/26 12:22:33;;;;;;;;;1.75;1.75;;;;;;;;5024998;28;45597;-82
2021/12/26 12:25:18;;;;;;;;;0.75;0.75;;;;;;;;5027223;28;45738;-82
2021/12/26 12:28:03;;;;;;;;;1.00;1.00;;;;;;;;5028214;28;45807;-81
2021/12/26 12:30:28;;;;;;;;;2.00;1.25;;;;;;;;5028362;28;45651;-82
2021/12/26 12:33:12;;;;;;;;;1.33;1.33;;;;;;;;5027785;28;46756;-81
2021/12/26 12:35:48;;;;;;;;;1.50;1.50;;;;;;;;5027210;28;45583;-83
2021/12/26 12:38:24;;;;;;;;;1.00;1.00;;;;;;;;5030822;28;45798;-81
2021/12/26 12:40:49;;;;;;;;;1.50;1.50;;;;;;;;5026375;28;45799;-83
2021/12/26 12:43:20;;;;;;;;;1.00;1.00;;;;;;;;5027502;28;47517;-83
2021/12/26 12:45:55;;;;;;;;;0.00;0.00;;;;;;;;5029013;28;45812;-81
2021/12/26 12:48:21;;;;;;;;;3.00;1.00;;;;;;;;5027182;28;46318;-83
2021/12/26 12:50:46;;;;;;;;;3.50;1.00;;;;;;;;5028116;28;45879;-83
2021/12/26 12:53:30;;;;;;;;;1.25;1.00;;;;;;;;5028225;28;45996;-82
2021/12/26 12:55:58;;;;;;;;;3.50;1.00;;;;;;;;5027866;28;45567;-81
2021/12/26 12:58:26;;;;;;;;;1.00;1.00;;;;;;;;5021087;28;46970;-82
2021/12/26 13:00:51;;;;;;;;;1.00;1.00;;;;;;;;5031026;28;45880;-82
2021/12/26 13:03:18;;;;;;;;;4.00;1.00;;;;;;;;5032443;28;45625;-83
2021/12/26 13:05:44;;;;;;;;;1.00;1.00;;;;;;;;5021621;28;45770;-83
2021/12/26 13:08:11;;;;;;;;;0.00;0.00;;;;;;;;5030043;28;46557;-82
2021/12/26 13:10:37;;;;;;;;;2.00;1.25;;;;;;;;5029447;28;45556;-83
2021/12/26 13:13:10;;;;;;;;;1.00;0.75;;;;;;;;5036464;28;45869;-83
2021/12/26 13:15:36;;;;;;;;;2.00;2.00;;;;;;;;5032350;28;45921;-82
2021/12/26 13:18:06;;;;;;;;;3.50;1.00;;;;;;;;5033896;28;45584;-82
2021/12/26 13:20:32;;;;;;;;;0.25;0.25;;;;;;;;5033051;28;45850;-82
2021/12/26 13:22:59;;;;;;;;;1.00;1.00;;;;;;;;5031635;28;45645;-82
2021/12/26 13:25:27;;;;;;;;;2.25;0.00;;;;;;;;5026836;28;45581;-82
2021/12/26 13:27:53;;;;;;;;;2.00;0.00;;;;;;;;5035149;28;45739;-80
2021/12/26 13:30:21;;;;;;;;;0.25;0.00;;;;;;;;5037933;28;45946;-80
2021/12/26 13:32:46;;;;;;;;;1.75;1.00;;;;;;;;5032352;28;45532;-81
2021/12/26 13:35:11;;;;;;;;;0.25;0.25;;;;;;;;5032106;28;45441;-80
2021/12/26 13:37:37;;;;;;;;;0.25;0.25;;;;;;;;5028623;28;46023;-80
2021/12/26 13:40:04;;;;;;;;;0.25;0.25;;;;;;;;5035102;28;45521;-80
2021/12/26 13:42:30;;;;;;;;;0.75;0.75;;;;;;;;5032769;28;45628;-80
2021/12/26 13:44:56;;;;;;;;;1.50;0.25;;;;;;;;5034891;28;45612;-80
2021/12/26 13:47:21;;;;;;;;;0.50;0.25;;;;;;;;5029325;28;45497;-80
2021/12/26 13:49:46;;;;;;;;;2.00;0.00;;;;;;;;5037302;28;45474;-86
2021/12/26 13:52:19;;;;;;;;;0.75;0.25;;;;;;;;5036053;28;45408;-81
2021/12/26 13:54:52;;;;;;;;;0.25;0.25;;;;;;;;5032950;28;45656;-81
2021/12/26 13:57:20;;;;;;;;;1.00;0.00;;;;;;;;5029368;28;46243;-81
2021/12/26 13:59:46;;;;;;;;;0.50;0.00;;;;;;;;5034832;28;45291;-81
2021/12/26 14:02:13;;;;;;;;;3.00;0.00;;;;;;;;5036655;28;45498;-82
2021/12/26 14:04:43;;;;;;;;;0.75;0.75;;;;;;;;5033336;28;45922;-81
2021/12/26 14:07:09;;;;;;;;;3.75;0.75;;;;;;;;5027668;28;46624;-82
2021/12/26 14:09:35;;;;;;;;;1.75;0.00;;;;;;;;5029439;28;47046;-81
2021/12/26 14:12:01;;;;;;;;;1.75;0.50;;;;;;;;5027432;28;45543;-81
2021/12/26 14:14:28;;;;;;;;;2.00;0.00;;;;;;;;5030814;28;45700;-81
2021/12/26 14:16:53;;;;;;;;;2.25;0.00;;;;;;;;5027957;28;45868;-81
2021/12/26 14:19:18;;;;;;;;;1.00;1.00;;;;;;;;5035261;28;45430;-83
2021/12/26 14:21:45;;;;;;;;;1.67;0.00;;;;;;;;5034563;28;45483;-82
2021/12/26 14:24:11;;;;;;;;;0.75;0.75;;;;;;;;5041932;28;45546;-82
2021/12/26 14:26:39;;;;;;;;;0.50;0.00;;;;;;;;5028464;28;48227;-82